Time;durP1;ratioP1;P1;durP2;ratioP2;P2;SDS_P1;SDS_P2;PMS_P1;PMS_P2;Temp;Humidity;BMP_temperature;BMP_pressure;BME280_temperature;BME280_humidity;BME280_pressure;Samples;Min_cycle;Max_cycle;Signal;HPM_P1;HPM_P2
2023/12/16 00:00:59;;;;;;;1.43;0.70;;;;;;;3.20;100.00;63258.97;5051635;28;20576;-53
2023/12/16 00:03:25;;;;;;;1.10;0.70;;;;;;;3.05;100.00;63237.72;5051739;28;20217;-55
2023/12/16 00:05:53;;;;;;;0.60;0.60;;;;;;;3.00;100.00;63235.31;5051582;28;20181;-54
2023/12/16 00:08:19;;;;;;;0.77;0.73;;;;;;;3.33;100.00;63271.13;5051625;28;20211;-56
2023/12/16 00:10:44;;;;;;;0.83;0.50;;;;;;;3.45;100.00;63280.59;5051490;28;20588;-54
2023/12/16 00:13:10;;;;;;;0.80;0.63;;;;;;;3.39;100.00;63272.66;5051499;28;20256;-55
2023/12/16 00:15:35;;;;;;;0.63;0.63;;;;;;;3.26;100.00;63260.50;5051578;28;20269;-53
2023/12/16 00:18:01;;;;;;;0.43;0.43;;;;;;;3.43;100.00;63282.00;5033717;28;20229;-53
2023/12/16 00:20:26;;;;;;;4.40;3.27;;;;;;;3.22;100.00;63258.66;5051367;28;20216;-53
2023/12/16 00:22:52;;;;;;;0.70;0.70;;;;;;;3.32;100.00;63269.50;5051433;28;20576;-54
2023/12/16 00:25:18;;;;;;;4.77;3.17;;;;;;;3.17;100.00;63250.75;5033524;28;20198;-54
2023/12/16 00:27:45;;;;;;;2.03;1.10;;;;;;;3.17;100.00;63253.22;5051263;28;20677;-54
2023/12/16 00:30:11;;;;;;;4.07;2.90;;;;;;;3.09;100.00;63242.56;5051376;28;20185;-54
2023/12/16 00:32:39;;;;;;;0.53;0.53;;;;;;;2.86;100.00;63217.63;5051407;28;20304;-53
2023/12/16 00:35:08;;;;;;;1.03;0.80;;;;;;;2.79;100.00;63214.97;5051146;28;20184;-53
2023/12/16 00:37:34;;;;;;;0.40;0.40;;;;;;;2.92;100.00;63229.09;5051325;28;20213;-52
2023/12/16 00:40:01;;;;;;;0.43;0.40;;;;;;;2.84;100.00;63217.38;5051309;28;20563;-55
2023/12/16 00:42:27;;;;;;;0.47;0.47;;;;;;;2.87;100.00;63221.19;5051088;28;20236;-57
2023/12/16 00:44:53;;;;;;;0.60;0.60;;;;;;;2.79;100.00;63212.50;5033210;28;20224;-56
2023/12/16 00:47:18;;;;;;;1.60;0.90;;;;;;;2.72;100.00;63204.91;5051079;28;20245;-55
2023/12/16 00:49:44;;;;;;;0.60;0.50;;;;;;;2.60;100.00;63186.34;5051061;28;20273;-56
2023/12/16 00:52:10;;;;;;;0.90;0.67;;;;;;;2.59;100.00;63190.25;5050754;28;20286;-56
2023/12/16 00:54:35;;;;;;;0.90;0.60;;;;;;;2.59;100.00;63190.25;5051086;28;20178;-53
2023/12/16 00:57:00;;;;;;;0.50;0.50;;;;;;;2.61;100.00;63192.94;5033351;28;20734;-56
2023/12/16 00:59:26;;;;;;;0.60;0.50;;;;;;;2.48;100.00;63181.34;5033115;28;20214;-55
2023/12/16 01:01:52;;;;;;;1.20;0.70;;;;;;;2.44;100.00;63174.50;5050873;28;20218;-56
2023/12/16 01:04:18;;;;;;;1.90;0.60;;;;;;;2.45;100.00;63173.09;5050853;28;20225;-55
2023/12/16 01:06:43;;;;;;;0.80;0.60;;;;;;;2.60;100.00;63189.38;5050932;28;20232;-51
2023/12/16 01:09:10;;;;;;;0.43;0.37;;;;;;;2.68;100.00;63200.00;5050901;28;20190;-55
2023/12/16 01:11:36;;;;;;;0.40;0.30;;;;;;;2.67;100.00;63198.94;5050831;28;20251;-55
2023/12/16 01:14:01;;;;;;;0.53;0.43;;;;;;;2.39;100.00;63169.06;5050830;28;20773;-53
2023/12/16 01:16:34;;;;;;;1.43;1.00;;;;;;;2.38;100.00;63166.03;5053393;28;20179;-53
2023/12/16 01:18:59;;;;;;;0.50;0.50;;;;;;;2.54;100.00;63182.88;5054237;28;20194;-53
2023/12/16 01:21:25;;;;;;;0.70;0.40;;;;;;;2.67;100.00;63198.94;5054030;28;20197;-53
2023/12/16 01:23:51;;;;;;;1.63;1.53;;;;;;;2.71;100.00;63206.28;5054059;28;20280;-53
2023/12/16 01:26:16;;;;;;;0.40;0.40;;;;;;;2.81;100.00;63212.19;5054010;28;20199;-53
2023/12/16 01:28:42;;;;;;;2.50;0.40;;;;;;;2.74;100.00;63209.00;5054381;28;20219;-53
2023/12/16 01:31:08;;;;;;;1.13;1.03;;;;;;;2.66;100.00;63203.34;5054127;28;20632;-52
2023/12/16 01:33:34;;;;;;;0.40;0.40;;;;;;;2.69;100.00;63198.63;5036144;28;20580;-61
2023/12/16 01:35:59;;;;;;;0.30;0.30;;;;;;;2.74;100.00;63207.06;5053902;28;20193;-56
2023/12/16 01:38:25;;;;;;;0.47;0.40;;;;;;;2.74;100.00;63207.06;5036235;28;20215;-56
2023/12/16 01:40:51;;;;;;;0.50;0.50;;;;;;;2.77;100.00;63209.78;5054037;28;20262;-54
2023/12/16 01:43:16;;;;;;;0.70;0.60;;;;;;;2.79;100.00;63211.97;5035982;28;20285;-56
2023/12/16 01:45:42;;;;;;;0.40;0.40;;;;;;;2.83;100.00;63214.34;5053856;28;20200;-56
2023/12/16 01:48:11;;;;;;;0.47;0.47;;;;;;;2.76;100.00;63209.25;5054007;28;20237;-57
2023/12/16 01:50:36;;;;;;;0.50;0.30;;;;;;;2.79;100.00;63210.00;5035980;28;20278;-56
2023/12/16 01:53:04;;;;;;;0.53;0.50;;;;;;;2.83;100.00;63214.34;5053835;28;20319;-53
2023/12/16 01:55:31;;;;;;;2.33;0.50;;;;;;;2.89;100.00;63223.34;5053651;28;20189;-53
2023/12/16 01:57:56;;;;;;;0.47;0.40;;;;;;;2.74;100.00;63206.53;5053542;28;20248;-53
2023/12/16 02:00:23;;;;;;;2.53;0.40;;;;;;;2.80;100.00;63213.03;5053580;28;20224;-57
2023/12/16 02:02:49;;;;;;;0.60;0.40;;;;;;;2.85;100.00;63216.50;5053469;28;20216;-52
2023/12/16 02:05:15;;;;;;;2.10;0.30;;;;;;;2.88;100.00;63221.72;5053905;28;20193;-56
2023/12/16 02:07:40;;;;;;;0.50;0.40;;;;;;;2.99;100.00;63233.69;5053383;28;20211;-53
2023/12/16 02:10:06;;;;;;;1.10;0.57;;;;;;;2.92;100.00;63226.06;5053476;28;20194;-53
2023/12/16 02:12:35;;;;;;;0.70;0.50;;;;;;;3.03;100.00;63238.56;5035457;28;20705;-52
2023/12/16 02:15:02;;;;;;;0.47;0.47;;;;;;;2.99;100.00;63234.22;5053269;28;20192;-52
2023/12/16 02:17:28;;;;;;;2.13;0.50;;;;;;;2.95;100.00;63229.88;5053670;28;20215;-53
2023/12/16 02:19:54;;;;;;;0.30;0.30;;;;;;;3.01;100.00;63233.38;5053172;28;20686;-56
2023/12/16 02:22:23;;;;;;;0.87;0.37;;;;;;;2.88;100.00;63222.28;5053175;28;20216;-53
2023/12/16 02:24:50;;;;;;;0.83;0.47;;;;;;;2.85;100.00;63219.00;5053115;28;20214;-53
2023/12/16 02:27:16;;;;;;;0.70;0.43;;;;;;;2.76;100.00;63209.25;5051986;28;20358;-54
2023/12/16 02:29:42;;;;;;;0.33;0.33;;;;;;;2.87;100.00;63220.66;5053012;28;20197;-52
2023/12/16 02:32:07;;;;;;;0.67;0.30;;;;;;;2.75;100.00;63205.13;5052961;28;20219;-56
2023/12/16 02:34:33;;;;;;;0.37;0.37;;;;;;;2.91;100.00;63225.53;5052862;28;20583;-55
2023/12/16 02:37:02;;;;;;;0.50;0.50;;;;;;;2.79;100.00;63211.97;5052933;28;20339;-55
2023/12/16 02:39:28;;;;;;;0.30;0.30;;;;;;;2.74;100.00;63207.06;5052903;28;20504;-53
2023/12/16 02:41:53;;;;;;;0.73;0.60;;;;;;;2.90;100.00;63224.44;5052862;28;20208;-56
2023/12/16 02:44:19;;;;;;;1.30;0.50;;;;;;;2.90;100.00;63224.44;5052928;28;20185;-54
2023/12/16 02:46:44;;;;;;;0.30;0.20;;;;;;;2.88;100.00;63219.78;5034752;28;20728;-56
2023/12/16 02:49:10;;;;;;;2.57;0.70;;;;;;;2.85;100.00;63221.50;5053378;28;20195;-52
2023/12/16 02:51:35;;;;;;;0.40;0.40;;;;;;;2.76;100.00;63208.69;5052955;28;20264;-54
2023/12/16 02:54:01;;;;;;;0.60;0.60;;;;;;;2.68;100.00;63203.03;5035051;28;20281;-57
2023/12/16 02:56:26;;;;;;;1.10;0.40;;;;;;;2.81;100.00;63214.13;5052702;28;20571;-55
2023/12/16 02:58:52;;;;;;;0.57;0.40;;;;;;;2.91;100.00;63225.00;5052552;28;20195;-53
2023/12/16 03:01:17;;;;;;;5.70;0.80;;;;;;;2.91;100.00;63225.53;5052600;28;20186;-54
2023/12/16 03:03:43;;;;;;;0.80;0.67;;;;;;;3.06;100.00;63241.81;5053039;28;20226;-54
2023/12/16 03:06:08;;;;;;;0.40;0.30;;;;;;;3.02;100.00;63237.47;5052568;28;20312;-55
2023/12/16 03:08:35;;;;;;;0.50;0.50;;;;;;;2.88;100.00;63224.22;5034564;28;20782;-53
2023/12/16 03:11:02;;;;;;;0.53;0.40;;;;;;;2.93;100.00;63227.69;5052635;28;20235;-55
2023/12/16 03:13:28;;;;;;;0.40;0.40;;;;;;;2.94;100.00;63228.25;5052608;28;20228;-53
2023/12/16 03:15:54;;;;;;;1.23;0.50;;;;;;;2.91;100.00;63225.53;5034335;28;20192;-53
2023/12/16 03:18:19;;;;;;;0.20;0.20;;;;;;;2.97;100.00;63229.03;5034530;28;20286;-53
2023/12/16 03:20:45;;;;;;;0.53;0.50;;;;;;;2.96;100.00;63228.47;5052207;28;20193;-53
2023/12/16 03:23:10;;;;;;;0.43;0.43;;;;;;;3.17;100.00;63255.72;5034493;28;20788;-55
2023/12/16 03:25:37;;;;;;;0.20;0.20;;;;;;;3.13;100.00;63246.91;5052235;28;20243;-55
2023/12/16 03:28:03;;;;;;;0.50;0.30;;;;;;;3.29;100.00;63263.78;5052162;28;20270;-55
2023/12/16 03:30:29;;;;;;;0.30;0.23;;;;;;;3.27;100.00;63262.13;5051974;28;20194;-54
2023/12/16 03:32:55;;;;;;;0.30;0.30;;;;;;;3.03;100.00;63238.03;5052051;28;20693;-55
2023/12/16 03:35:21;;;;;;;0.30;0.30;;;;;;;2.85;100.00;63216.50;5034570;28;20190;-54
2023/12/16 03:37:47;;;;;;;0.30;0.30;;;;;;;2.79;100.00;63211.97;5051894;28;20269;-52
2023/12/16 03:40:13;;;;;;;0.53;0.30;;;;;;;2.76;100.00;63206.75;5051994;28;20186;-53
2023/12/16 03:42:39;;;;;;;0.97;0.63;;;;;;;2.99;100.00;63234.22;5052103;28;20215;-55
2023/12/16 03:45:05;;;;;;;0.40;0.40;;;;;;;2.95;100.00;63229.88;5052011;28;20196;-55
2023/12/16 03:47:32;;;;;;;0.50;0.50;;;;;;;2.97;100.00;63231.50;5052230;28;20698;-55
2023/12/16 03:49:57;;;;;;;1.13;0.53;;;;;;;3.24;100.00;63261.38;5051879;28;20188;-53
2023/12/16 03:52:23;;;;;;;0.40;0.40;;;;;;;3.20;100.00;63256.47;5033786;28;20240;-54
2023/12/16 03:54:48;;;;;;;0.40;0.40;;;;;;;3.20;100.00;63259.50;5033987;28;20262;-53
2023/12/16 03:57:14;;;;;;;2.17;0.50;;;;;;;2.90;100.00;63224.44;5051736;28;20323;-53
2023/12/16 03:59:40;;;;;;;0.53;0.40;;;;;;;2.90;100.00;63228.88;5051800;28;20192;-57
2023/12/16 04:02:05;;;;;;;0.53;0.53;;;;;;;2.83;100.00;63214.34;5033861;28;20219;-53
2023/12/16 04:04:32;;;;;;;0.70;0.70;;;;;;;2.84;100.00;63219.88;5051790;28;20660;-56
2023/12/16 04:07:00;;;;;;;1.80;0.70;;;;;;;2.90;100.00;63223.91;5051945;28;20215;-56
2023/12/16 04:09:27;;;;;;;0.93;0.63;;;;;;;2.93;100.00;63225.19;5051634;28;20206;-56
2023/12/16 04:11:53;;;;;;;0.87;0.50;;;;;;;2.76;100.00;63206.22;5051410;28;20239;-55
2023/12/16 04:14:18;;;;;;;2.77;0.30;;;;;;;2.86;100.00;63217.63;5051413;28;20214;-58
2023/12/16 04:16:44;;;;;;;0.87;0.30;;;;;;;2.80;100.00;63211.09;5033588;28;20225;-59
2023/12/16 04:19:11;;;;;;;0.87;0.50;;;;;;;2.66;100.00;63198.38;5051439;28;20235;-55
2023/12/16 04:21:37;;;;;;;0.53;0.40;;;;;;;2.66;100.00;63198.38;5051269;28;20725;-57
2023/12/16 04:24:03;;;;;;;0.50;0.50;;;;;;;2.61;100.00;63192.94;5051706;28;20201;-55
2023/12/16 04:26:28;;;;;;;0.60;0.60;;;;;;;2.73;100.00;63205.97;5051422;28;20189;-54
2023/12/16 04:28:54;;;;;;;0.90;0.70;;;;;;;2.56;100.00;63188.06;5051724;28;20194;-54
2023/12/16 04:31:19;;;;;;;0.87;0.60;;;;;;;2.84;100.00;63217.38;5051228;28;20185;-59
2023/12/16 04:33:45;;;;;;;0.80;0.70;;;;;;;2.91;100.00;63225.53;5051434;28;20251;-56
2023/12/16 04:36:15;;;;;;;0.50;0.50;;;;;;;2.72;100.00;63204.91;5051193;28;20274;-56
2023/12/16 04:38:41;;;;;;;0.80;0.80;;;;;;;2.86;100.00;63217.06;5051052;28;20217;-56
2023/12/16 04:41:07;;;;;;;0.50;0.50;;;;;;;2.97;100.00;63232.03;5051144;28;20189;-56
2023/12/16 04:43:32;;;;;;;0.73;0.50;;;;;;;3.02;100.00;63235.00;5033341;28;20215;-55
2023/12/16 04:46:00;;;;;;;1.03;0.40;;;;;;;2.83;100.00;63216.31;5051283;28;20189;-54
2023/12/16 04:48:26;;;;;;;0.37;0.37;;;;;;;2.76;100.00;63206.22;5051394;28;20705;-55
2023/12/16 04:50:52;;;;;;;0.57;0.57;;;;;;;2.55;100.00;63183.94;5050136;28;20199;-58
2023/12/16 04:53:17;;;;;;;0.50;0.50;;;;;;;2.40;100.00;63170.69;5049649;28;20227;-55
2023/12/16 04:55:43;;;;;;;0.57;0.57;;;;;;;2.35;100.00;63165.28;5051091;28;20196;-54
2023/12/16 04:58:08;;;;;;;0.97;0.93;;;;;;;2.49;100.00;63179.94;5051051;28;20221;-56
2023/12/16 05:00:34;;;;;;;2.00;1.10;;;;;;;2.56;100.00;63187.53;5050956;28;20658;-54
2023/12/16 05:03:00;;;;;;;3.30;1.20;;;;;;;2.48;100.00;63176.38;5050848;28;20209;-54
2023/12/16 05:05:26;;;;;;;2.17;1.10;;;;;;;2.52;100.00;63183.19;5050909;28;20194;-56
2023/12/16 05:07:52;;;;;;;2.83;2.03;;;;;;;2.54;100.00;63185.38;5051043;28;20578;-55
2023/12/16 05:10:17;;;;;;;1.00;0.90;;;;;;;2.27;100.00;63156.06;5050810;28;20659;-56
2023/12/16 05:12:43;;;;;;;2.07;1.17;;;;;;;2.31;100.00;63160.38;5050824;28;20228;-57
2023/12/16 05:15:09;;;;;;;1.23;1.03;;;;;;;2.33;100.00;63163.09;5050865;28;20186;-56
2023/12/16 05:17:35;;;;;;;0.93;0.40;;;;;;;2.22;100.00;63148.16;5049411;28;20222;-56
2023/12/16 05:20:00;;;;;;;1.53;0.67;;;;;;;2.31;100.00;63157.91;5050623;28;20193;-55
2023/12/16 05:22:26;;;;;;;2.37;0.63;;;;;;;2.33;100.00;63163.09;5050568;28;20208;-56
2023/12/16 05:24:51;;;;;;;0.70;0.70;;;;;;;2.28;100.00;63159.63;5050555;28;20200;-59
2023/12/16 05:27:17;;;;;;;2.87;0.60;;;;;;;2.10;100.00;63138.16;5050662;28;20694;-54
2023/12/16 05:29:43;;;;;;;1.10;0.67;;;;;;;2.11;100.00;63139.25;5050544;28;20182;-57
2023/12/16 05:32:08;;;;;;;0.50;0.50;;;;;;;2.12;100.00;63139.78;5050423;28;20252;-53
2023/12/16 05:34:34;;;;;;;0.70;0.70;;;;;;;2.25;100.00;63153.88;5050515;28;20190;-54
2023/12/16 05:36:59;;;;;;;0.97;0.90;;;;;;;1.91;100.00;63117.00;5050350;28;20211;-53
2023/12/16 05:39:26;;;;;;;1.60;1.37;;;;;;;1.61;100.00;63085.56;5050511;28;20206;-54
2023/12/16 05:41:52;;;;;;;1.93;1.17;;;;;;;1.51;100.00;63077.19;5050272;28;20216;-54
2023/12/16 05:44:17;;;;;;;1.23;1.03;;;;;;;1.51;100.00;63072.25;5032748;28;20185;-53
2023/12/16 05:46:42;;;;;;;1.70;1.20;;;;;;;1.49;100.00;63070.06;5050109;28;20210;-53
2023/12/16 05:49:08;;;;;;;1.93;1.53;;;;;;;1.60;100.00;63084.47;5050453;28;20228;-52
2023/12/16 05:54:01;;;;;;;4.10;1.60;;;;;;;1.75;100.00;63099.66;5077517;22;20236;-53
2023/12/16 05:56:26;;;;;;;2.20;1.70;;;;;;;1.94;100.00;63120.78;5068990;28;20250;-54
2023/12/16 05:58:52;;;;;;;2.43;1.60;;;;;;;2.26;100.00;63157.47;5050116;28;20206;-53
2023/12/16 06:01:20;;;;;;;2.97;2.20;;;;;;;2.29;100.00;63155.75;5050893;28;20193;-53
2023/12/16 06:03:46;;;;;;;2.07;1.20;;;;;;;2.29;100.00;63155.75;5035752;28;20193;-55
2023/12/16 06:06:11;;;;;;;5.50;1.70;;;;;;;2.12;100.00;63140.31;5053757;28;20186;-55
2023/12/16 06:08:37;;;;;;;2.93;2.13;;;;;;;2.40;100.00;63170.69;5053475;28;20343;-56
2023/12/16 06:11:03;;;;;;;2.93;2.00;;;;;;;2.28;100.00;63160.16;5053656;28;20194;-57
2023/12/16 06:13:29;;;;;;;3.47;1.57;;;;;;;2.40;100.00;63167.69;5035449;28;20222;-55
2023/12/16 06:15:54;;;;;;;2.37;1.60;;;;;;;2.63;100.00;63192.63;5053451;28;20212;-56
2023/12/16 06:18:20;;;;;;;5.80;1.87;;;;;;;2.66;100.00;63197.84;5053247;28;20208;-60
2023/12/16 06:20:45;;;;;;;0.40;0.40;;;;;;;2.49;100.00;63177.44;5053255;28;20242;-55
2023/12/16 06:23:11;;;;;;;1.90;1.23;;;;;;;2.33;100.00;63160.06;5053184;28;20592;-54
2023/12/16 06:25:36;;;;;;;1.53;0.90;;;;;;;2.26;100.00;63154.97;5053425;28;20190;-56
2023/12/16 06:28:02;;;;;;;1.17;0.67;;;;;;;2.55;100.00;63182.00;5053476;28;20275;-54
2023/12/16 06:30:28;;;;;;;0.97;0.80;;;;;;;2.48;100.00;63179.38;5035491;28;20255;-54
2023/12/16 06:32:53;;;;;;;1.30;0.53;;;;;;;2.23;100.00;63154.75;5053306;28;20590;-53
2023/12/16 06:35:19;;;;;;;2.10;0.50;;;;;;;2.16;100.00;63144.66;5035222;28;20236;-53
2023/12/16 06:37:44;;;;;;;1.00;0.90;;;;;;;2.06;100.00;63133.28;5035219;28;20606;-56
2023/12/16 06:40:10;;;;;;;0.43;0.40;;;;;;;2.18;100.00;63144.34;5053077;28;20194;-57
2023/12/16 06:42:35;;;;;;;0.80;0.60;;;;;;;2.11;100.00;63139.25;5035285;28;20279;-56
2023/12/16 06:45:01;;;;;;;1.90;0.60;;;;;;;2.22;100.00;63148.16;5035159;28;20190;-56
2023/12/16 06:47:26;;;;;;;0.67;0.40;;;;;;;2.17;100.00;63145.75;5052868;28;20739;-56
2023/12/16 06:49:53;;;;;;;0.47;0.47;;;;;;;2.04;100.00;63131.63;5053032;28;20271;-56
2023/12/16 06:52:18;;;;;;;2.20;0.60;;;;;;;2.24;100.00;63153.34;5053047;28;20559;-54
2023/12/16 06:54:44;;;;;;;0.87;0.50;;;;;;;2.05;100.00;63132.72;5035029;28;20269;-53
2023/12/16 06:57:09;;;;;;;0.67;0.67;;;;;;;2.00;100.00;63126.78;5052956;28;20217;-56
2023/12/16 06:59:35;;;;;;;1.97;0.80;;;;;;;2.04;100.00;63131.09;5052773;28;20566;-56
2023/12/16 07:02:01;;;;;;;1.33;0.90;;;;;;;2.04;100.00;63128.63;5034915;28;20682;-54
2023/12/16 07:04:26;;;;;;;0.37;0.37;;;;;;;2.01;100.00;63125.38;5052735;28;20703;-55
2023/12/16 07:06:52;;;;;;;2.03;0.70;;;;;;;1.98;100.00;63122.13;5052815;28;20218;-54
2023/12/16 07:09:18;;;;;;;1.07;0.70;;;;;;;1.91;100.00;63120.03;5052325;28;20190;-54
2023/12/16 07:11:44;;;;;;;0.83;0.30;;;;;;;1.94;100.00;63120.25;5052622;28;20237;-55
2023/12/16 07:14:09;;;;;;;1.53;0.97;;;;;;;1.85;100.00;63113.53;5051944;28;20259;-55
2023/12/16 07:16:35;;;;;;;1.53;1.00;;;;;;;1.90;100.00;63116.44;5052659;28;20268;-53
2023/12/16 07:19:01;;;;;;;4.50;0.93;;;;;;;1.96;100.00;63122.44;5052450;28;20178;-54
2023/12/16 07:21:27;;;;;;;1.53;1.17;;;;;;;1.79;100.00;63107.00;5052360;28;20194;-54
2023/12/16 07:23:57;;;;;;;1.73;0.50;;;;;;;2.08;100.00;63135.44;5052225;28;20181;-54
2023/12/16 07:26:23;;;;;;;2.33;0.63;;;;;;;1.88;100.00;63116.75;5034313;28;20194;-54
2023/12/16 07:28:50;;;;;;;1.10;0.77;;;;;;;1.92;100.00;63118.09;5052231;28;20260;-54
2023/12/16 07:31:15;;;;;;;1.00;0.70;;;;;;;1.82;100.00;63107.78;5052181;28;20189;-54
2023/12/16 07:33:41;;;;;;;1.63;1.53;;;;;;;1.87;100.00;63113.22;5052161;28;20742;-53
2023/12/16 07:36:15;;;;;;;1.40;1.30;;;;;;;1.96;100.00;63124.91;5052320;28;20226;-54
2023/12/16 07:38:41;;;;;;;2.37;1.37;;;;;;;1.97;100.00;63126.53;5051921;28;20221;-54
2023/12/16 07:41:07;;;;;;;2.63;1.87;;;;;;;2.00;100.00;63126.78;5052166;28;20185;-55
2023/12/16 07:43:32;;;;;;;1.13;0.57;;;;;;;2.08;100.00;63135.97;5052050;28;20707;-54
2023/12/16 07:45:58;;;;;;;1.23;0.80;;;;;;;2.11;100.00;63138.69;5051965;28;20184;-54
2023/12/16 07:48:24;;;;;;;4.63;1.10;;;;;;;2.28;100.00;63157.16;5051839;28;20209;-53
2023/12/16 07:50:53;;;;;;;2.17;0.90;;;;;;;2.12;100.00;63140.31;5051825;28;20277;-54
2023/12/16 07:53:22;;;;;;;0.70;0.63;;;;;;;2.11;100.00;63136.22;5051610;28;20209;-55
2023/12/16 07:55:49;;;;;;;1.67;0.80;;;;;;;2.42;100.00;63172.34;5033754;28;21123;-55
2023/12/16 07:58:15;;;;;;;1.17;0.90;;;;;;;2.39;100.00;63169.63;5051703;28;20202;-55
2023/12/16 08:00:41;;;;;;;1.07;0.67;;;;;;;2.39;100.00;63169.63;5051910;28;20193;-54
2023/12/16 08:03:06;;;;;;;4.10;1.03;;;;;;;2.53;100.00;63184.81;5051805;28;20213;-55
2023/12/16 08:05:32;;;;;;;1.20;0.60;;;;;;;2.58;100.00;63189.16;5033987;28;20320;-55
2023/12/16 08:07:58;;;;;;;1.37;0.73;;;;;;;2.45;100.00;63173.09;5051782;28;20222;-55
2023/12/16 08:10:23;;;;;;;0.87;0.63;;;;;;;2.56;100.00;63185.03;5051636;28;20270;-53
2023/12/16 08:12:49;;;;;;;2.00;1.00;;;;;;;2.44;100.00;63177.00;5051473;28;20249;-54
2023/12/16 08:15:15;;;;;;;0.60;0.60;;;;;;;2.35;100.00;63165.28;5051539;28;20235;-52
2023/12/16 08:17:41;;;;;;;1.50;0.80;;;;;;;2.19;100.00;63147.38;5051391;28;20764;-54
2023/12/16 08:20:08;;;;;;;2.47;1.37;;;;;;;1.99;100.00;63125.69;5051451;28;20636;-55
2023/12/16 08:22:34;;;;;;;0.90;0.90;;;;;;;1.94;100.00;63117.78;5051807;28;20267;-56
2023/12/16 08:24:59;;;;;;;1.77;1.20;;;;;;;2.02;100.00;63129.47;5050139;28;20178;-56
2023/12/16 08:27:25;;;;;;;0.97;0.87;;;;;;;2.02;100.00;63128.94;5051630;28;20713;-55
2023/12/16 08:29:51;;;;;;;1.70;0.90;;;;;;;1.89;100.00;63115.38;5051265;28;20189;-56
2023/12/16 08:32:17;;;;;;;2.77;1.30;;;;;;;1.94;100.00;63117.78;5033583;28;20205;-54
2023/12/16 08:34:42;;;;;;;1.27;1.17;;;;;;;2.12;100.00;63142.28;5033312;28;20216;-55
2023/12/16 08:37:08;;;;;;;0.70;0.70;;;;;;;2.03;100.00;63130.00;5051543;28;20361;-55
2023/12/16 08:39:33;;;;;;;1.57;1.10;;;;;;;1.92;100.00;63115.59;5051223;28;20177;-54
2023/12/16 08:41:59;;;;;;;1.17;0.70;;;;;;;2.09;100.00;63136.53;5051306;28;20699;-56
2023/12/16 08:44:24;;;;;;;2.23;0.97;;;;;;;2.30;100.00;63159.31;5051062;28;20232;-56
2023/12/16 08:46:50;;;;;;;4.00;1.30;;;;;;;2.39;100.00;63169.06;5051247;28;20244;-58
2023/12/16 08:49:15;;;;;;;1.80;0.67;;;;;;;2.56;100.00;63188.06;5033194;28;20238;-55
2023/12/16 08:51:41;;;;;;;1.00;0.90;;;;;;;2.67;100.00;63196.44;5051117;28;20266;-54
2023/12/16 08:54:07;;;;;;;3.60;1.00;;;;;;;2.81;100.00;63217.16;5050918;28;20240;-56
2023/12/16 08:56:32;;;;;;;1.73;0.70;;;;;;;2.93;100.00;63227.16;5051012;28;20197;-54
2023/12/16 08:58:58;;;;;;;1.57;0.90;;;;;;;2.79;100.00;63207.50;5051164;28;20279;-54
2023/12/16 09:01:23;;;;;;;0.63;0.63;;;;;;;2.59;100.00;63190.25;5050728;28;20679;-56
2023/12/16 09:03:49;;;;;;;0.83;0.50;;;;;;;2.73;100.00;63205.44;5050852;28;20196;-54
2023/12/16 09:06:15;;;;;;;0.83;0.70;;;;;;;2.71;100.00;63206.28;5050848;28;20243;-54
2023/12/16 09:08:40;;;;;;;0.50;0.50;;;;;;;2.64;100.00;63193.19;5050764;28;20233;-53
2023/12/16 09:11:06;;;;;;;0.93;0.60;;;;;;;2.59;100.00;63190.78;5050844;28;20213;-55
2023/12/16 09:13:32;;;;;;;2.23;0.80;;;;;;;2.78;100.00;63211.41;5050506;28;20214;-53
2023/12/16 09:15:58;;;;;;;1.97;0.67;;;;;;;2.67;100.00;63199.47;5050720;28;20200;-55
2023/12/16 09:18:23;;;;;;;1.33;0.70;;;;;;;2.78;100.00;63211.41;5050639;28;20222;-54
2023/12/16 09:20:49;;;;;;;2.33;0.90;;;;;;;2.83;100.00;63218.78;5050692;28;20574;-53
2023/12/16 09:23:16;;;;;;;1.00;0.60;;;;;;;3.16;100.00;63252.69;5050339;28;20215;-54
2023/12/16 09:25:41;;;;;;;1.33;1.23;;;;;;;3.26;100.00;63263.53;5050426;28;20217;-54
2023/12/16 09:28:07;;;;;;;0.60;0.60;;;;;;;3.17;100.00;63253.75;5050433;28;20211;-54
2023/12/16 09:30:32;;;;;;;0.97;0.70;;;;;;;3.22;100.00;63256.16;5050634;28;20214;-55
2023/12/16 09:32:58;;;;;;;0.70;0.50;;;;;;;3.29;100.00;63269.28;5050268;28;20678;-55
2023/12/16 09:35:25;;;;;;;1.53;0.90;;;;;;;3.37;100.00;63274.94;5050315;28;20268;-54
2023/12/16 09:37:50;;;;;;;1.03;0.90;;;;;;;3.42;100.00;63280.38;5053942;28;20311;-53
2023/12/16 09:40:16;;;;;;;2.83;0.80;;;;;;;3.46;100.00;63281.69;5053857;28;20225;-53
2023/12/16 09:43:01;;;;;;;1.37;0.90;;;;;;;3.55;100.00;63294.50;5053831;28;20209;-55
2023/12/16 09:45:26;;;;;;;2.60;0.80;;;;;;;3.61;100.00;63301.03;5053779;28;20186;-56
2023/12/16 09:47:52;;;;;;;1.20;0.90;;;;;;;3.75;100.00;63315.69;5053766;28;20207;-55
2023/12/16 09:50:18;;;;;;;2.50;1.57;;;;;;;3.86;100.00;63330.69;5053757;28;20273;-54
2023/12/16 09:52:44;;;;;;;2.20;0.90;;;;;;;3.81;100.00;63322.22;5054140;28;20222;-54
2023/12/16 09:55:10;;;;;;;2.40;0.70;;;;;;;3.73;100.00;63314.06;5053962;28;20184;-56
2023/12/16 09:57:38;;;;;;;1.43;0.63;;;;;;;3.54;100.00;63292.88;5053907;28;20225;-56
2023/12/16 10:00:04;;;;;;;1.40;0.80;;;;;;;3.23;100.00;63259.75;5053679;28;20655;-58
2023/12/16 10:02:30;;;;;;;1.03;0.67;;;;;;;2.94;100.00;63226.31;5035805;28;20221;-57
2023/12/16 10:04:57;;;;;;;2.20;1.40;;;;;;;2.84;100.00;63220.41;5053652;28;20242;-56
2023/12/16 10:07:23;;;;;;;2.63;1.10;;;;;;;3.06;100.00;63238.78;5053442;28;20209;-62
2023/12/16 10:09:48;;;;;;;0.83;0.70;;;;;;;3.01;100.00;63235.84;5053483;28;20583;-55
2023/12/16 10:12:14;;;;;;;1.67;1.30;;;;;;;2.84;100.00;63215.44;5053252;28;20224;-56
2023/12/16 10:14:50;;;;;;;2.53;1.20;;;;;;;2.96;100.00;63228.47;5053358;28;20556;-56
2023/12/16 10:17:17;;;;;;;3.50;1.63;;;;;;;3.12;100.00;63247.78;5053712;28;20218;-56
2023/12/16 10:19:44;;;;;;;1.13;0.83;;;;;;;3.08;100.00;63243.44;5053240;28;20182;-57
2023/12/16 10:22:12;;;;;;;0.60;0.50;;;;;;;2.84;100.00;63217.94;5053594;28;20205;-55
2023/12/16 10:24:37;;;;;;;1.67;0.90;;;;;;;2.83;100.00;63216.31;5053289;28;20269;-55
2023/12/16 10:27:05;;;;;;;1.07;0.60;;;;;;;2.82;100.00;63215.75;5053477;28;20296;-56
2023/12/16 10:29:34;;;;;;;1.10;0.60;;;;;;;2.80;100.00;63216.06;5053201;28;20196;-56
2023/12/16 10:32:00;;;;;;;1.57;1.00;;;;;;;2.82;100.00;63215.75;5053292;28;20264;-54
2023/12/16 10:34:29;;;;;;;2.40;1.33;;;;;;;3.04;100.00;63239.09;5053065;28;20226;-54
2023/12/16 10:37:08;;;;;;;1.67;0.80;;;;;;;3.26;100.00;63263.00;5053358;28;20224;-56
2023/12/16 10:39:35;;;;;;;0.97;0.80;;;;;;;3.28;100.00;63265.16;5052990;28;20189;-55
2023/12/16 10:42:01;;;;;;;1.80;1.00;;;;;;;3.30;100.00;63267.88;5053234;28;20231;-55
2023/12/16 10:44:27;;;;;;;1.33;0.80;;;;;;;3.46;100.00;63281.69;5053099;28;20185;-55
2023/12/16 10:46:54;;;;;;;1.90;0.97;;;;;;;3.72;100.00;63309.94;5053022;28;20324;-56
2023/12/16 10:49:31;;;;;;;1.20;0.70;;;;;;;3.74;100.00;63312.66;5052062;28;20191;-55
2023/12/16 10:52:10;;;;;;;1.23;0.70;;;;;;;3.93;100.00;63333.31;5053029;28;20223;-54
2023/12/16 10:54:46;;;;;;;2.73;0.83;;;;;;;3.70;100.00;63310.25;5052950;28;20209;-54
2023/12/16 10:57:21;;;;;;;3.50;1.17;;;;;;;3.41;100.00;63277.34;5034913;28;20213;-55
2023/12/16 11:00:07;;;;;;;1.33;0.97;;;;;;;3.66;100.00;63306.44;5052799;28;20189;-53
2023/12/16 11:02:41;;;;;;;1.50;1.27;;;;;;;3.68;100.00;63306.13;5052373;28;20216;-52
2023/12/16 11:05:17;;;;;;;1.77;1.30;;;;;;;3.66;100.00;63306.44;5035451;28;20193;-56
2023/12/16 11:07:44;;;;;;;2.60;1.77;;;;;;;3.53;100.00;63292.34;5052996;28;20256;-56
2023/12/16 11:10:09;;;;;;;1.43;1.10;;;;;;;3.61;100.00;63300.47;5034803;28;20195;-56
2023/12/16 11:12:37;;;;;;;5.27;2.77;;;;;;;3.67;100.00;63307.00;5052650;28;20247;-56
2023/12/16 11:15:06;;;;;;;1.53;1.30;;;;;;;3.81;100.00;63320.28;5052564;28;20196;-55
2023/12/16 11:17:40;;;;;;;2.73;1.47;;;;;;;3.75;100.00;63313.75;5052389;28;20228;-53
2023/12/16 11:20:06;;;;;;;1.77;1.30;;;;;;;3.82;100.00;63320.78;5052757;28;20199;-53
2023/12/16 11:22:32;;;;;;;3.53;1.30;;;;;;;3.98;100.00;63338.22;5053034;28;20698;-54
2023/12/16 11:24:58;;;;;;;0.90;0.80;;;;;;;4.08;100.00;63349.06;5052370;28;20186;-54
2023/12/16 11:27:23;;;;;;;1.63;1.53;;;;;;;4.08;100.00;63349.59;5052230;28;20212;-53
2023/12/16 11:29:50;;;;;;;1.80;1.17;;;;;;;4.38;100.00;63381.16;5052270;28;20278;-55
2023/12/16 11:32:16;;;;;;;2.07;1.27;;;;;;;4.52;100.00;63396.38;5052503;28;20205;-54